Time;durP1;ratioP1;P1;durP2;ratioP2;P2;SDS_P1;SDS_P2;PMS_P1;PMS_P2;Temp;Humidity;BMP_temperature;BMP_pressure;BME280_temperature;BME280_humidity;BME280_pressure;Samples;Min_cycle;Max_cycle;Signal;HPM_P1;HPM_P2
2022/01/23 00:02:08;;;;;;;36.10;17.67;;;;;;;4.04;100.00;97821.53;4994923;28;20797;-51
2022/01/23 00:04:37;;;;;;;38.10;19.15;;;;;;;4.13;100.00;97822.88;4996734;28;20069;-50
2022/01/23 00:07:07;;;;;;;32.88;17.38;;;;;;;3.96;100.00;97822.81;5013615;28;20080;-47
2022/01/23 00:09:35;;;;;;;32.28;17.77;;;;;;;3.99;100.00;97820.03;5011224;28;20073;-51
2022/01/23 00:12:07;;;;;;;32.28;17.00;;;;;;;3.86;100.00;97811.94;5015172;28;20070;-51
2022/01/23 00:17:25;;;;;;;28.13;15.07;;;;;;;3.96;100.00;97815.81;5016822;28;20478;-46
2022/01/23 00:19:57;;;;;;;32.47;16.98;;;;;;;4.19;100.00;97813.91;5013381;28;21730;-49
2022/01/23 00:22:34;;;;;;;31.15;16.88;;;;;;;4.07;100.00;97814.50;4997335;28;20078;-47
2022/01/23 00:30:40;;;;;;;27.75;14.15;;;;;;;3.78;100.00;97814.03;5018998;28;20158;-48
2022/01/23 00:33:10;;;;;;;27.13;15.05;;;;;;;3.94;100.00;97825.47;5008325;28;20068;-49
2022/01/23 00:35:40;;;;;;;33.05;18.20;;;;;;;4.19;100.00;97819.97;5014185;28;20080;-48
2022/01/23 00:38:10;;;;;;;30.55;15.32;;;;;;;4.01;100.00;97815.59;5017160;28;20508;-49
2022/01/23 00:40:40;;;;;;;23.92;14.32;;;;;;;3.80;100.00;97805.22;5009293;28;20205;-49
2022/01/23 00:43:15;;;;;;;32.63;16.80;;;;;;;4.08;100.00;97808.34;4995701;28;20074;-48
2022/01/23 00:45:48;;;;;;;28.73;14.77;;;;;;;4.00;100.00;97804.31;4990977;28;20544;-49
2022/01/23 00:48:17;;;;;;;30.60;16.52;;;;;;;4.11;100.00;97809.03;4990284;28;20074;-47
2022/01/23 00:50:46;;;;;;;30.50;16.13;;;;;;;4.19;100.00;97812.13;4991843;28;20142;-49
2022/01/23 00:53:15;;;;;;;34.45;16.65;;;;;;;4.25;100.00;97813.63;4994497;28;20597;-49
2022/01/23 00:55:45;;;;;;;30.15;15.88;;;;;;;3.97;100.00;97812.28;5020049;28;20062;-46
2022/01/23 00:58:14;;;;;;;31.45;16.65;;;;;;;4.39;100.00;97815.56;5016547;28;20069;-53
2022/01/23 01:00:44;;;;;;;30.38;16.58;;;;;;;4.31;100.00;97808.13;5015240;28;20073;-50
2022/01/23 01:03:13;;;;;;;30.90;17.10;;;;;;;4.40;100.00;97806.81;5022416;28;20523;-49
2022/01/23 01:05:41;;;;;;;31.15;15.43;;;;;;;4.12;100.00;97815.94;5014305;28;20104;-45
2022/01/23 01:08:10;;;;;;;30.05;15.90;;;;;;;4.04;100.00;97826.75;5018289;28;20080;-51
2022/01/23 01:10:44;;;;;;;29.60;15.77;;;;;;;4.11;100.00;97818.63;5011803;28;20065;-47
2022/01/23 01:13:14;;;;;;;21.17;12.73;;;;;;;4.14;100.00;97816.72;5011710;28;20461;-47
2022/01/23 01:16:12;;;;;;;26.60;14.52;;;;;;;4.16;100.00;97827.94;5015366;28;20077;-48
2022/01/23 01:32:49;;;;;;;30.65;16.45;;;;;;;4.58;100.00;97821.63;5012506;28;20086;-46
2022/01/23 01:35:23;;;;;;;30.50;16.40;;;;;;;4.37;100.00;97827.84;5013436;28;20081;-50
2022/01/23 01:37:52;;;;;;;33.65;17.80;;;;;;;4.58;100.00;97824.25;5013525;28;20512;-50
2022/01/23 01:40:22;;;;;;;28.25;15.52;;;;;;;4.45;100.00;97823.13;5023920;28;20072;-53
2022/01/23 01:42:51;;;;;;;23.83;14.90;;;;;;;4.36;100.00;97824.41;5022985;28;20077;-51
2022/01/23 01:45:22;;;;;;;23.80;14.55;;;;;;;4.53;100.00;97824.44;5009914;28;20073;-47
2022/01/23 01:47:53;;;;;;;29.25;17.00;;;;;;;4.70;100.00;97828.84;4985965;28;20078;-56
2022/01/23 01:50:22;;;;;;;30.33;15.13;;;;;;;4.41;100.00;97827.66;4989000;28;20085;-46
2022/01/23 01:52:50;;;;;;;31.77;16.85;;;;;;;4.45;100.00;97828.34;4988403;28;20070;-49
2022/01/23 01:55:25;;;;;;;30.23;16.73;;;;;;;4.46;100.00;97833.50;4991090;28;20667;-46
2022/01/23 01:58:00;;;;;;;29.52;15.73;;;;;;;4.53;100.00;97828.81;5006889;28;20715;-47
2022/01/23 02:00:46;;;;;;;23.15;14.30;;;;;;;4.37;100.00;97817.41;5013479;28;20074;-48
2022/01/23 02:08:50;;;;;;;24.60;13.32;;;;;;;4.24;100.00;97828.44;4997848;28;20065;-51
2022/01/23 02:11:24;;;;;;;27.20;14.80;;;;;;;4.43;100.00;97828.41;5023741;28;20077;-51
2022/01/23 02:13:56;;;;;;;25.15;14.02;;;;;;;4.35;100.00;97824.47;5025987;28;20557;-46
2022/01/23 02:17:09;;;;;;;26.30;15.57;;;;;;;4.86;100.00;97820.28;5016456;28;20061;-51
2022/01/23 02:22:49;;;;;;;21.00;13.45;;;;;;;4.31;100.00;97826.41;4994375;28;20079;-48
2022/01/23 02:50:30;;;;;;;29.35;15.80;;;;;;;4.70;100.00;97825.41;5017631;28;20475;-50
2022/01/23 02:50:49;;;;;;;25.38;13.75;;;;;;;4.63;100.00;97809.16;4992664;28;20081;-46
2022/01/23 02:53:34;;;;;;;26.95;14.35;;;;;;;4.66;100.00;97822.09;4994959;28;20563;-47
2022/01/23 02:56:12;;;;;;;27.10;15.32;;;;;;;4.65;100.00;97824.78;4996259;28;20395;-50
2022/01/23 02:58:57;;;;;;;29.58;14.10;;;;;;;4.82;100.00;97822.19;4992181;28;20085;-48
2022/01/23 03:01:29;;;;;;;25.88;14.95;;;;;;;4.73;100.00;97827.88;4992885;28;20069;-47
2022/01/23 03:04:02;;;;;;;22.75;14.00;;;;;;;4.47;100.00;97819.53;4993860;28;20076;-46
2022/01/23 03:06:54;;;;;;;28.50;15.45;;;;;;;4.78;100.00;97819.78;5000806;28;20069;-46
2022/01/23 03:12:40;;;;;;;28.98;15.50;;;;;;;4.66;100.00;97811.63;4987763;28;20082;-49
2022/01/23 03:15:07;;;;;;;25.85;13.93;;;;;;;4.37;100.00;97825.25;4995284;28;20081;-46
2022/01/23 03:29:05;;;;;;;28.20;14.90;;;;;;;4.39;100.00;97819.03;4993638;28;20073;-46
2022/01/23 03:31:43;;;;;;;29.42;14.10;;;;;;;4.29;100.00;97807.31;4991634;28;20786;-46
2022/01/23 03:34:30;;;;;;;28.40;16.65;;;;;;;4.49;100.00;97814.22;4992975;28;20152;-56
2022/01/23 03:36:58;;;;;;;30.83;16.85;;;;;;;4.65;100.00;97814.34;4997910;28;20130;-50
2022/01/23 03:39:27;;;;;;;28.48;16.13;;;;;;;4.51;100.00;97807.16;4992751;28;20070;-51
2022/01/23 03:41:55;;;;;;;25.77;15.32;;;;;;;4.35;100.00;97812.25;4995770;28;20062;-49
2022/01/23 03:44:25;;;;;;;26.52;15.45;;;;;;;4.34;100.00;97821.03;5018564;28;20084;-51
2022/01/23 03:47:14;;;;;;;28.70;14.70;;;;;;;4.40;100.00;97827.72;5009475;28;20038;-51
2022/01/23 03:49:41;;;;;;;24.83;14.82;;;;;;;4.75;100.00;97829.50;5017339;28;20061;-50
2022/01/23 03:52:12;;;;;;;22.95;13.48;;;;;;;4.61;100.00;97833.66;5014307;28;20073;-53
2022/01/23 03:54:41;;;;;;;26.75;15.23;;;;;;;4.75;100.00;97844.31;5021239;28;20069;-51
2022/01/23 03:57:09;;;;;;;24.80;15.07;;;;;;;4.68;100.00;97853.34;5014213;28;20076;-48
2022/01/23 03:59:39;;;;;;;27.30;14.95;;;;;;;4.48;100.00;97849.94;5016729;28;20088;-46
2022/01/23 04:02:08;;;;;;;24.88;14.90;;;;;;;4.62;100.00;97844.06;5020613;28;20084;-46
2022/01/23 04:04:40;;;;;;;27.85;16.45;;;;;;;4.60;100.00;97848.50;5010883;28;20057;-48
2022/01/23 04:07:11;;;;;;;28.33;16.05;;;;;;;4.55;100.00;97849.66;5016578;28;20065;-47
2022/01/23 04:09:41;;;;;;;33.95;16.52;;;;;;;4.66;100.00;97844.75;5017257;28;20069;-50
2022/01/23 04:12:16;;;;;;;29.77;16.53;;;;;;;4.47;100.00;97845.66;5027239;28;20447;-47
2022/01/23 04:14:52;;;;;;;26.05;14.73;;;;;;;4.74;100.00;97837.38;5015850;28;20088;-51
2022/01/23 04:18:27;;;;;;;34.42;17.13;;;;;;;4.51;100.00;97843.75;5013535;28;20081;-48
2022/01/23 04:20:48;;;;;;;28.13;15.48;;;;;;;4.84;100.00;97838.63;5005406;28;20180;-48
2022/01/23 04:32:08;;;;;;;23.52;15.30;;;;;;;4.55;100.00;97847.88;5026094;28;20068;-47
2022/01/23 04:34:51;;;;;;;26.88;15.52;;;;;;;4.45;100.00;97842.25;5022236;28;20205;-52
2022/01/23 04:45:39;;;;;;;27.42;15.57;;;;;;;4.63;100.00;97852.75;5021598;28;20072;-52
2022/01/23 04:59:35;;;;;;;31.52;16.42;;;;;;;4.73;100.00;97854.00;5016797;28;20084;-51
2022/01/23 05:02:17;;;;;;;25.95;15.35;;;;;;;4.90;100.00;97846.19;5016566;28;20464;-51
2022/01/23 05:04:48;;;;;;;26.45;15.45;;;;;;;4.74;100.00;97845.22;5015178;28;20069;-49
2022/01/23 05:07:18;;;;;;;27.83;15.50;;;;;;;4.67;100.00;97839.44;5014348;28;20064;-52
2022/01/23 05:09:49;;;;;;;28.83;16.10;;;;;;;4.84;100.00;97828.19;5013995;28;20065;-53
2022/01/23 05:12:17;;;;;;;27.73;15.15;;;;;;;4.82;100.00;97837.88;5009954;28;20496;-50
2022/01/23 05:14:47;;;;;;;23.65;13.07;;;;;;;4.50;100.00;97835.03;4996632;28;20567;-49
2022/01/23 05:17:16;;;;;;;28.35;15.25;;;;;;;4.65;100.00;97822.19;4994118;28;20077;-51
2022/01/23 05:19:44;;;;;;;20.50;12.05;;;;;;;4.25;100.00;97818.84;4987162;28;20066;-49
2022/01/23 05:22:27;;;;;;;32.85;15.70;;;;;;;4.65;100.00;97811.72;4987878;28;20072;-52
2022/01/23 05:24:59;;;;;;;27.10;15.57;;;;;;;4.64;100.00;97812.63;4991570;28;20749;-50
2022/01/23 05:27:29;;;;;;;25.65;15.68;;;;;;;4.74;100.00;97824.31;4995183;28;20082;-51
2022/01/23 05:29:59;;;;;;;26.73;15.75;;;;;;;4.81;100.00;97840.56;4991788;28;20070;-52
2022/01/23 05:32:31;;;;;;;22.98;13.73;;;;;;;4.61;100.00;97852.84;4991053;28;20471;-48
2022/01/23 05:34:59;;;;;;;25.00;15.32;;;;;;;4.60;100.00;97860.72;5015143;28;20073;-49
2022/01/23 05:37:29;;;;;;;25.30;14.88;;;;;;;4.85;100.00;97855.16;5022632;28;20491;-50
2022/01/23 05:39:57;;;;;;;25.17;15.82;;;;;;;4.70;100.00;97851.53;5022499;28;20068;-51
2022/01/23 05:42:26;;;;;;;25.20;14.85;;;;;;;4.54;100.00;97848.78;5022327;28;20092;-50
2022/01/23 05:44:55;;;;;;;27.88;15.25;;;;;;;4.61;100.00;97854.56;5022309;28;20523;-49
2022/01/23 05:47:23;;;;;;;25.83;15.55;;;;;;;4.69;100.00;97842.84;5018458;28;20077;-51
2022/01/23 05:49:52;;;;;;;28.40;16.10;;;;;;;4.69;100.00;97857.69;5018042;28;20128;-51
2022/01/23 05:52:20;;;;;;;30.23;16.88;;;;;;;4.76;100.00;97861.69;5021708;28;20069;-48
2022/01/23 05:54:50;;;;;;;26.90;14.73;;;;;;;4.66;100.00;97865.66;5018340;28;20083;-56
2022/01/23 05:57:19;;;;;;;25.58;15.23;;;;;;;4.75;100.00;97866.06;5017827;28;20076;-52
2022/01/23 05:59:47;;;;;;;32.53;15.80;;;;;;;4.91;100.00;97867.94;5014437;28;20080;-53
2022/01/23 06:02:16;;;;;;;30.52;16.30;;;;;;;4.65;100.00;97872.66;5024615;28;20531;-49
2022/01/23 06:04:45;;;;;;;29.45;15.38;;;;;;;4.40;100.00;97878.16;5018439;28;20531;-49
2022/01/23 06:07:13;;;;;;;28.27;15.05;;;;;;;4.64;100.00;97881.41;5019408;28;20476;-48
2022/01/23 06:09:41;;;;;;;24.25;14.85;;;;;;;4.47;100.00;97877.00;5004280;28;20536;-49
2022/01/23 06:12:12;;;;;;;29.60;15.45;;;;;;;4.86;100.00;97873.41;5006678;28;20065;-53
2022/01/23 06:14:40;;;;;;;29.33;16.38;;;;;;;4.78;100.00;97887.72;5012150;28;20073;-48
2022/01/23 06:17:09;;;;;;;28.73;16.38;;;;;;;4.85;100.00;97879.56;4999838;28;20084;-48
2022/01/23 06:19:38;;;;;;;27.52;15.77;;;;;;;4.88;100.00;97881.97;5016476;28;20068;-50
2022/01/23 06:22:07;;;;;;;26.83;15.90;;;;;;;4.87;100.00;97877.69;5020857;28;20073;-47
2022/01/23 06:24:44;;;;;;;29.75;17.23;;;;;;;4.52;100.00;97876.78;5016899;28;20515;-47
2022/01/23 06:27:14;;;;;;;28.17;15.02;;;;;;;4.53;100.00;97883.69;5021374;28;20538;-49
2022/01/23 06:29:44;;;;;;;28.08;15.43;;;;;;;4.62;100.00;97887.63;5012983;28;20507;-48
2022/01/23 06:32:14;;;;;;;26.77;15.13;;;;;;;4.62;100.00;97885.03;5017909;28;20112;-52
2022/01/23 06:34:42;;;;;;;25.55;15.82;;;;;;;4.62;100.00;97874.56;5025665;28;21423;-45
2022/01/23 06:37:12;;;;;;;24.55;14.73;;;;;;;4.55;100.00;97881.84;5024309;28;20029;-50
2022/01/23 06:39:40;;;;;;;24.77;15.52;;;;;;;4.53;100.00;97884.53;5015029;28;20073;-49
2022/01/23 06:42:09;;;;;;;25.92;15.38;;;;;;;4.27;100.00;97885.75;5017661;28;20077;-48
2022/01/23 06:44:40;;;;;;;29.00;16.73;;;;;;;4.60;100.00;97877.25;5018615;28;20107;-48
2022/01/23 06:47:08;;;;;;;27.63;16.23;;;;;;;4.65;100.00;97884.88;5022735;28;20554;-50
2022/01/23 06:49:37;;;;;;;26.77;15.05;;;;;;;4.63;100.00;97887.56;5003806;28;20057;-49
2022/01/23 06:52:05;;;;;;;27.85;15.30;;;;;;;4.53;100.00;97891.50;4993245;28;20085;-48
2022/01/23 06:54:34;;;;;;;26.35;16.50;;;;;;;4.55;100.00;97884.47;5000363;28;20066;-47
2022/01/23 06:57:02;;;;;;;28.17;15.93;;;;;;;4.75;100.00;97881.75;5019861;28;20064;-53
2022/01/23 06:59:31;;;;;;;26.98;15.85;;;;;;;4.73;100.00;97887.97;5014539;28;20608;-48
2022/01/23 07:02:00;;;;;;;25.98;15.82;;;;;;;4.54;100.00;97877.53;5019658;28;20096;-48
2022/01/23 07:04:29;;;;;;;28.45;15.82;;;;;;;4.43;100.00;97875.41;5008840;28;20069;-53
2022/01/23 07:06:57;;;;;;;28.10;15.82;;;;;;;4.47;100.00;97876.13;5024219;28;20069;-46
2022/01/23 07:09:26;;;;;;;22.77;14.60;;;;;;;4.27;100.00;97884.91;5010024;28;20080;-48
2022/01/23 07:11:54;;;;;;;23.52;14.45;;;;;;;4.48;100.00;97896.97;4992036;28;20079;-54
2022/01/23 07:14:23;;;;;;;26.90;15.45;;;;;;;4.87;100.00;97900.38;4992616;28;20480;-50
2022/01/23 07:16:51;;;;;;;25.73;15.60;;;;;;;4.87;100.00;97906.44;5014117;28;20119;-49
2022/01/23 07:19:21;;;;;;;27.45;15.55;;;;;;;4.86;100.00;97903.91;5020589;28;20077;-52
2022/01/23 07:21:50;;;;;;;24.20;14.50;;;;;;;4.92;100.00;97909.69;5015676;28;20081;-53
2022/01/23 07:24:19;;;;;;;28.02;15.90;;;;;;;4.86;100.00;97917.81;5012437;28;20057;-52
2022/01/23 07:26:48;;;;;;;24.10;15.23;;;;;;;4.82;100.00;97921.50;5018300;28;20069;-48
2022/01/23 07:29:17;;;;;;;27.55;16.63;;;;;;;4.80;100.00;97922.50;5025859;28;20073;-53
2022/01/23 07:32:00;;;;;;;27.73;15.55;;;;;;;4.94;100.00;97930.53;5014336;28;20077;-51
2022/01/23 07:34:30;;;;;;;29.52;16.17;;;;;;;5.00;100.00;97928.47;5001036;28;20074;-52
2022/01/23 07:36:58;;;;;;;29.63;16.17;;;;;;;4.92;100.00;97937.56;4994061;28;20061;-49
2022/01/23 07:39:28;;;;;;;28.88;16.13;;;;;;;5.07;100.00;97947.31;4994532;28;20069;-47
2022/01/23 07:41:56;;;;;;;28.67;16.50;;;;;;;5.32;100.00;97953.97;4997512;28;20069;-49
2022/01/23 07:44:25;;;;;;;28.55;17.15;;;;;;;5.22;100.00;97953.56;4992556;28;20101;-55
2022/01/23 07:46:54;;;;;;;31.45;16.75;;;;;;;5.09;100.00;97952.47;4992364;28;20192;-56
2022/01/23 07:49:23;;;;;;;28.73;16.63;;;;;;;5.26;100.00;97956.88;4988955;28;20061;-52
2022/01/23 07:51:52;;;;;;;26.88;15.75;;;;;;;5.24;100.00;97954.34;4995154;28;20096;-52
2022/01/23 07:54:22;;;;;;;25.15;15.75;;;;;;;5.19;100.00;97962.41;4988096;28;20092;-50
2022/01/23 07:56:50;;;;;;;29.23;16.73;;;;;;;5.15;100.00;97960.00;4988663;28;20454;-55
2022/01/23 07:59:19;;;;;;;26.27;16.17;;;;;;;5.29;100.00;97960.19;4992675;28;20077;-48
2022/01/23 08:01:47;;;;;;;26.67;16.90;;;;;;;5.52;100.00;97956.44;4990723;28;20512;-51
2022/01/23 08:04:16;;;;;;;26.63;16.63;;;;;;;5.69;100.00;97968.69;4987024;28;20488;-52
2022/01/23 08:06:46;;;;;;;28.58;17.23;;;;;;;5.90;100.00;97967.59;4989631;28;20480;-49
2022/01/23 08:09:16;;;;;;;27.63;16.05;;;;;;;5.53;100.00;97970.38;4987422;28;20930;-50
2022/01/23 08:11:44;;;;;;;29.80;16.30;;;;;;;5.22;100.00;97982.34;4997074;28;20112;-55
2022/01/23 08:14:13;;;;;;;29.58;17.25;;;;;;;5.80;100.00;97982.06;5015850;28;20096;-50
2022/01/23 08:16:41;;;;;;;31.02;17.92;;;;;;;5.84;100.00;97980.16;5012132;28;20528;-51
2022/01/23 08:19:10;;;;;;;29.30;17.52;;;;;;;6.04;100.00;97985.25;5017495;28;20073;-52
2022/01/23 08:21:38;;;;;;;26.02;16.45;;;;;;;6.00;100.00;97990.72;5018291;28;20072;-49
2022/01/23 08:24:07;;;;;;;28.35;16.90;;;;;;;6.19;100.00;97983.59;5019793;28;20137;-46
2022/01/23 08:26:37;;;;;;;30.38;17.67;;;;;;;6.13;100.00;97983.94;5012662;28;20084;-55
2022/01/23 08:29:06;;;;;;;26.38;16.92;;;;;;;5.85;100.00;97977.47;5013354;28;20084;-53
2022/01/23 08:31:34;;;;;;;27.83;17.30;;;;;;;6.28;100.00;97972.66;5015624;28;20065;-54
2022/01/23 08:34:03;;;;;;;27.38;16.73;;;;;;;6.34;100.00;97977.56;5022486;28;20456;-50
2022/01/23 08:36:33;;;;;;;28.77;17.38;;;;;;;6.04;100.00;97973.94;5014584;28;20069;-50
2022/01/23 08:39:01;;;;;;;25.80;15.63;;;;;;;5.98;100.00;97976.84;5017622;28;20064;-50
2022/01/23 08:44:18;;;;;;;24.95;16.27;;;;;;;5.89;100.00;97988.63;5016272;28;20089;-52
2022/01/23 08:46:47;;;;;;;25.27;16.50;;;;;;;5.84;100.00;97983.59;5011666;28;20058;-47
2022/01/23 08:49:17;;;;;;;26.35;16.27;;;;;;;5.84;100.00;97974.91;5012143;28;20073;-49
2022/01/23 08:51:45;;;;;;;24.98;15.77;;;;;;;5.72;100.00;97973.78;5012693;28;20458;-52
2022/01/23 08:54:14;;;;;;;25.55;16.83;;;;;;;6.45;100.00;97968.28;4996878;28;20076;-53
2022/01/23 08:56:43;;;;;;;25.60;15.80;;;;;;;5.90;100.00;97975.44;5014522;28;20116;-48
2022/01/23 08:59:11;;;;;;;25.95;16.35;;;;;;;6.01;100.00;97971.47;5009269;28;20085;-55
2022/01/23 09:01:41;;;;;;;26.70;17.33;;;;;;;6.41;100.00;97972.84;5012028;28;20061;-49
2022/01/23 09:04:15;;;;;;;26.02;16.70;;;;;;;6.30;100.00;97973.44;5015954;28;20068;-52
2022/01/23 09:06:44;;;;;;;25.52;16.73;;;;;;;6.28;100.00;97972.66;5015697;28;20080;-49
2022/01/23 09:09:18;;;;;;;28.55;17.10;;;;;;;6.35;100.00;97981.03;5018651;28;20084;-53
2022/01/23 09:12:02;;;;;;;24.58;16.40;;;;;;;6.37;100.00;97972.19;5009824;28;20077;-48
2022/01/23 09:14:31;;;;;;;26.52;17.42;;;;;;;6.77;100.00;97972.63;5013236;28;20072;-49
2022/01/23 09:17:03;;;;;;;23.67;16.00;;;;;;;6.70;100.00;97960.78;5019657;28;20081;-52
2022/01/23 09:19:32;;;;;;;24.35;15.75;;;;;;;6.35;100.00;97973.19;5023031;28;20528;-50
2022/01/23 09:22:01;;;;;;;26.55;16.17;;;;;;;6.46;100.00;97968.19;5011562;28;20077;-49
2022/01/23 09:24:31;;;;;;;23.60;15.85;;;;;;;6.51;100.00;97968.81;5015525;28;20080;-48
2022/01/23 09:27:05;;;;;;;22.53;14.80;;;;;;;6.53;100.00;97968.72;5014034;28;20070;-53
2022/01/23 09:29:37;;;;;;;26.30;15.43;;;;;;;6.75;100.00;97971.03;5020198;28;20104;-49
2022/01/23 09:32:10;;;;;;;23.15;15.57;;;;;;;6.60;100.00;97967.47;5018753;28;20566;-51
2022/01/23 09:34:41;;;;;;;24.50;15.88;;;;;;;6.92;100.00;97967.47;5009480;28;20072;-51
2022/01/23 09:37:11;;;;;;;26.27;15.43;;;;;;;7.05;100.00;97968.47;5017126;28;20074;-50
2022/01/23 09:39:41;;;;;;;25.50;16.02;;;;;;;6.30;100.00;97969.97;5014702;28;20101;-50
2022/01/23 09:42:13;;;;;;;23.03;15.77;;;;;;;6.82;100.00;97972.41;5013642;28;20077;-52
2022/01/23 09:44:45;;;;;;;24.38;15.85;;;;;;;6.00;100.00;97981.09;5008904;28;20084;-47
2022/01/23 09:47:16;;;;;;;22.90;15.25;;;;;;;6.73;100.00;97980.75;5022643;28;20110;-49
2022/01/23 09:49:45;;;;;;;24.75;15.50;;;;;;;6.82;100.00;97980.28;5013953;28;20061;-51
2022/01/23 09:52:14;;;;;;;23.98;16.00;;;;;;;7.16;100.00;97976.63;5016371;28;20675;-48
2022/01/23 09:54:45;;;;;;;25.02;16.63;;;;;;;7.31;100.00;97980.16;5009641;28;20628;-48
2022/01/23 09:57:15;;;;;;;24.05;15.95;;;;;;;7.82;100.00;97978.09;5013133;28;20065;-50
2022/01/23 09:59:44;;;;;;;23.92;15.52;;;;;;;7.87;100.00;97977.81;5016204;28;20081;-47
2022/01/23 10:02:12;;;;;;;24.60;16.35;;;;;;;7.60;100.00;97981.97;5026325;28;20499;-49
2022/01/23 10:04:42;;;;;;;21.27;14.60;;;;;;;7.82;100.00;97973.69;5021371;28;20069;-52
2022/01/23 10:07:11;;;;;;;22.30;15.03;;;;;;;7.74;100.00;97970.66;5010306;28;20089;-50
2022/01/23 10:09:39;;;;;;;23.67;15.55;;;;;;;7.75;100.00;97972.34;5012451;28;20901;-53
2022/01/23 10:12:09;;;;;;;22.83;14.15;;;;;;;7.46;100.00;97970.56;5011002;28;20064;-53
2022/01/23 10:14:38;;;;;;;22.77;15.68;;;;;;;7.11;100.00;97969.00;5019966;28;20077;-55
2022/01/23 10:17:09;;;;;;;22.08;14.77;;;;;;;7.53;100.00;97977.13;5014426;28;20077;-50
2022/01/23 10:19:39;;;;;;;23.10;15.07;;;;;;;7.43;100.00;97966.31;5021450;28;20642;-46
2022/01/23 10:22:08;;;;;;;24.33;15.98;;;;;;;7.81;100.00;97961.50;5026658;28;20091;-48
2022/01/23 10:24:37;;;;;;;22.50;15.07;;;;;;;7.40;100.00;97968.28;5008709;28;20065;-53
2022/01/23 10:27:06;;;;;;;22.08;14.77;;;;;;;7.30;100.00;97971.44;5005883;28;20073;-52
2022/01/23 10:29:37;;;;;;;22.08;14.98;;;;;;;7.75;100.00;97966.25;5014032;28;20092;-54
2022/01/23 10:32:12;;;;;;;23.48;15.15;;;;;;;7.82;100.00;97965.78;4998062;28;20572;-45
2022/01/23 10:34:45;;;;;;;23.30;15.82;;;;;;;8.20;100.00;97965.28;5018015;28;20065;-47
2022/01/23 10:37:28;;;;;;;23.13;15.35;;;;;;;6.92;100.00;97970.09;5028853;28;20060;-49
2022/01/23 10:40:06;;;;;;;23.85;14.80;;;;;;;7.13;100.00;97968.94;5018252;28;20057;-51
2022/01/23 10:48:38;;;;;;;24.65;14.60;;;;;;;7.78;100.00;97966.91;5016251;28;20073;-50
2022/01/23 10:51:16;;;;;;;24.35;14.65;;;;;;;6.80;100.00;97961.97;5027148;28;20464;-51
2022/01/23 10:54:20;;;;;;;23.15;15.10;;;;;;;7.07;100.00;97964.00;5015551;28;20085;-51
2022/01/23 10:56:59;;;;;;;22.02;14.20;;;;;;;7.22;100.00;97978.88;4953122;28;20066;-49
2022/01/23 10:59:46;;;;;;;20.25;14.68;;;;;;;7.76;100.00;97960.91;4957053;28;20090;-46
2022/01/23 11:02:21;;;;;;;22.63;14.38;;;;;;;7.89;100.00;97965.44;5002230;28;20089;-55
2022/01/23 11:04:52;;;;;;;22.48;14.20;;;;;;;7.50;100.00;97965.06;5021660;28;20080;-53
2022/01/23 11:07:21;;;;;;;23.63;15.02;;;;;;;6.83;100.00;97960.97;5015666;28;20696;-54
2022/01/23 11:10:02;;;;;;;23.17;14.77;;;;;;;7.21;100.00;97961.44;5015747;28;20073;-56
2022/01/23 11:17:21;;;;;;;22.45;15.05;;;;;;;7.32;100.00;97961.69;5026209;28;20091;-49
2022/01/23 11:18:38;;;;;;;20.33;13.88;;;;;;;7.19;100.00;97958.09;5019452;28;20559;-52
2022/01/23 11:21:21;;;;;;;24.00;15.45;;;;;;;7.09;100.00;97951.66;5015180;28;20068;-51
2022/01/23 11:24:09;;;;;;;21.25;14.00;;;;;;;7.50;100.00;97953.69;5019016;28;20061;-47
2022/01/23 11:26:39;;;;;;;22.50;13.20;;;;;;;7.54;100.00;97950.81;5020291;28;20076;-56
2022/01/23 11:29:12;;;;;;;19.67;13.20;;;;;;;7.79;100.00;97950.22;5021183;28;20084;-47
2022/01/23 11:31:42;;;;;;;23.33;15.05;;;;;;;7.71;100.00;97948.97;4996186;28;20073;-49
2022/01/23 11:34:12;;;;;;;21.48;13.73;;;;;;;7.66;100.00;97951.88;4992925;28;20700;-55
2022/01/23 11:36:41;;;;;;;22.40;13.87;;;;;;;7.91;100.00;97947.78;4995497;28;20085;-50
2022/01/23 11:39:15;;;;;;;23.13;13.73;;;;;;;7.84;100.00;97949.94;4993099;28;20528;-51
2022/01/23 11:53:46;;;;;;;23.38;15.10;;;;;;;8.75;100.00;97929.53;5015210;28;20508;-49
2022/01/23 11:56:43;;;;;;;24.02;14.93;;;;;;;8.66;100.00;97928.31;5019715;28;20156;-48
2022/01/23 11:59:26;;;;;;;21.73;14.40;;;;;;;8.47;100.00;97933.88;5029072;28;20404;-51
2022/01/23 12:02:27;;;;;;;22.17;14.35;;;;;;;9.08;100.00;97928.28;5014376;28;20686;-53
2022/01/23 12:05:20;;;;;;;22.25;14.07;;;;;;;9.19;100.00;97928.47;5019539;28;20377;-51
2022/01/23 12:08:28;;;;;;;21.65;14.05;;;;;;;8.72;100.00;97920.03;5010890;28;20084;-54
2022/01/23 12:17:40;;;;;;;22.70;14.70;;;;;;;8.62;100.00;97926.81;5031473;28;20468;-56
2022/01/23 12:20:10;;;;;;;23.48;15.43;;;;;;;8.02;100.00;97929.63;5010622;28;20586;-51
2022/01/23 12:22:42;;;;;;;23.80;14.73;;;;;;;9.02;100.00;97926.91;5018581;28;20468;-49
2022/01/23 12:25:20;;;;;;;23.58;15.15;;;;;;;8.59;100.00;97928.78;5012612;28;20092;-50
2022/01/23 12:27:49;;;;;;;25.17;15.50;;;;;;;8.39;100.00;97935.28;5001137;28;20081;-52
2022/01/23 12:30:44;;;;;;;25.20;15.88;;;;;;;9.13;100.00;97939.38;4993725;28;20058;-50
2022/01/23 12:33:45;;;;;;;22.70;14.40;;;;;;;9.02;100.00;97940.06;4994892;28;20077;-52
2022/01/23 12:36:24;;;;;;;22.45;14.35;;;;;;;8.84;100.00;97933.34;4991565;28;20073;-54
2022/01/23 12:38:54;;;;;;;21.23;14.13;;;;;;;8.97;100.00;97934.25;4993873;28;20078;-50
2022/01/23 12:41:26;;;;;;;21.85;14.32;;;;;;;9.50;100.00;97932.56;4994604;28;20653;-49
2022/01/23 12:43:57;;;;;;;21.88;14.30;;;;;;;9.48;100.00;97926.53;4987889;28;20476;-49
2022/01/23 12:46:36;;;;;;;20.92;14.00;;;;;;;9.93;100.00;97917.31;4992775;28;20078;-47
2022/01/23 12:49:23;;;;;;;22.33;14.43;;;;;;;9.45;100.00;97918.84;4993691;28;20076;-48
2022/01/23 12:51:54;;;;;;;19.98;13.52;;;;;;;9.14;100.00;97922.63;4996080;28;20066;-47
2022/01/23 12:54:26;;;;;;;22.60;14.48;;;;;;;9.08;100.00;97929.13;4997485;28;20445;-53
2022/01/23 12:56:55;;;;;;;20.88;14.30;;;;;;;9.28;100.00;97915.53;4989316;28;20073;-47
2022/01/23 12:59:32;;;;;;;22.85;14.68;;;;;;;9.37;100.00;97915.88;4992426;28;20556;-52
2022/01/23 13:02:07;;;;;;;23.05;14.82;;;;;;;9.08;100.00;97921.22;4995191;28;20469;-51
2022/01/23 13:04:40;;;;;;;22.40;14.60;;;;;;;9.29;100.00;97916.38;4994301;28;20469;-47
2022/01/23 13:10:08;;;;;;;21.77;14.63;;;;;;;9.87;100.00;97922.16;4990856;28;20685;-52
2022/01/23 13:12:49;;;;;;;23.42;14.63;;;;;;;10.28;100.00;97918.50;4995351;28;20062;-48
2022/01/23 13:15:40;;;;;;;23.25;14.50;;;;;;;10.06;100.00;97919.97;4993137;28;20081;-53
2022/01/23 13:18:29;;;;;;;20.48;13.98;;;;;;;10.05;100.00;97913.03;4998277;28;20070;-50
2022/01/23 13:32:13;;;;;;;22.25;14.73;;;;;;;8.64;100.00;97916.22;5015147;28;20339;-48
2022/01/23 13:34:48;;;;;;;21.73;14.00;;;;;;;8.91;100.00;97906.56;5015504;28;20070;-48
2022/01/23 13:37:18;;;;;;;23.73;15.27;;;;;;;8.73;100.00;97905.09;5012894;28;20096;-49
2022/01/23 13:39:53;;;;;;;23.17;14.60;;;;;;;8.92;100.00;97900.34;5012765;28;20670;-50
2022/01/23 13:53:49;;;;;;;22.85;15.20;;;;;;;8.30;100.00;97887.56;5011543;28;20084;-50
2022/01/23 13:59:08;;;;;;;21.83;14.82;;;;;;;9.24;100.00;97878.97;5013742;28;21561;-49
2022/01/23 14:01:49;;;;;;;21.95;15.13;;;;;;;9.33;100.00;97885.44;5015150;28;20172;-53
2022/01/23 14:04:18;;;;;;;21.30;14.15;;;;;;;9.08;100.00;97888.81;5012334;28;20468;-54
2022/01/23 14:06:49;;;;;;;22.63;14.60;;;;;;;8.86;100.00;97889.38;5014167;28;20069;-52
2022/01/23 14:09:18;;;;;;;21.65;14.35;;;;;;;8.97;100.00;97897.41;5014732;28;20069;-51
2022/01/23 14:11:47;;;;;;;19.50;13.10;;;;;;;8.59;100.00;97898.06;5017276;28;20550;-52
2022/01/23 14:14:17;;;;;;;21.90;14.13;;;;;;;8.58;100.00;97895.56;5018551;28;20081;-54
2022/01/23 14:16:47;;;;;;;20.60;14.05;;;;;;;8.95;100.00;97901.94;5014747;28;20453;-51
2022/01/23 14:19:17;;;;;;;21.52;14.18;;;;;;;8.95;100.00;97901.94;5015688;28;20551;-50